sensor_id;sensor_type;location;lat;lon;timestamp;pressure;altitude;pressure_sealevel;temperature;humidity
84318;BME280;74497;51.654;14.238;2024-02-14T00:02:11;100907.75;;;2.74;100.00
84318;BME280;74497;51.654;14.238;2024-02-14T00:04:37;100908.59;;;2.74;100.00
84318;BME280;74497;51.654;14.238;2024-02-14T00:07:04;100908.66;;;2.72;100.00
84318;BME280;74497;51.654;14.238;2024-02-14T00:09:29;100901.44;;;2.76;100.00
84318;BME280;74497;51.654;14.238;2024-02-14T00:11:55;100899.44;;;2.80;100.00
84318;BME280;74497;51.654;14.238;2024-02-14T00:14:21;100896.81;;;2.80;100.00
84318;BME280;74497;51.654;14.238;2024-02-14T00:16:46;100903.22;;;2.76;100.00
84318;BME280;74497;51.654;14.238;2024-02-14T00:19:12;100897.56;;;2.67;100.00
84318;BME280;74497;51.654;14.238;2024-02-14T00:21:38;100900.56;;;2.61;100.00
84318;BME280;74497;51.654;14.238;2024-02-14T00:24:07;100894.94;;;2.52;100.00
84318;BME280;74497;51.654;14.238;2024-02-14T00:26:32;100896.34;;;2.43;100.00
84318;BME280;74497;51.654;14.238;2024-02-14T00:29:01;100900.66;;;2.44;100.00
84318;BME280;74497;51.654;14.238;2024-02-14T00:31:27;100903.66;;;2.38;100.00
84318;BME280;74497;51.654;14.238;2024-02-14T00:33:53;100908.25;;;2.34;100.00
84318;BME280;74497;51.654;14.238;2024-02-14T00:36:19;100907.59;;;2.31;100.00
84318;BME280;74497;51.654;14.238;2024-02-14T00:38:45;100902.25;;;2.16;100.00
84318;BME280;74497;51.654;14.238;2024-02-14T00:41:11;100908.03;;;2.07;100.00
84318;BME280;74497;51.654;14.238;2024-02-14T00:43:36;100907.34;;;2.04;100.00
84318;BME280;74497;51.654;14.238;2024-02-14T00:46:02;100905.81;;;2.00;100.00
84318;BME280;74497;51.654;14.238;2024-02-14T00:48:28;100910.41;;;1.96;100.00
84318;BME280;74497;51.654;14.238;2024-02-14T00:50:54;100910.72;;;1.90;100.00
84318;BME280;74497;51.654;14.238;2024-02-14T00:53:19;100907.78;;;1.80;100.00
84318;BME280;74497;51.654;14.238;2024-02-14T00:55:46;100902.00;;;1.74;100.00
84318;BME280;74497;51.654;14.238;2024-02-14T00:58:12;100905.88;;;1.67;100.00
84318;BME280;74497;51.654;14.238;2024-02-14T01:00:37;100910.53;;;1.61;100.00
84318;BME280;74497;51.654;14.238;2024-02-14T01:03:03;100902.78;;;1.58;100.00
84318;BME280;74497;51.654;14.238;2024-02-14T01:05:29;100900.50;;;1.52;100.00
84318;BME280;74497;51.654;14.238;2024-02-14T01:07:55;100916.69;;;1.45;100.00
84318;BME280;74497;51.654;14.238;2024-02-14T01:10:21;100916.97;;;1.40;100.00
84318;BME280;74497;51.654;14.238;2024-02-14T01:12:46;100913.53;;;1.38;100.00
84318;BME280;74497;51.654;14.238;2024-02-14T01:15:12;100916.41;;;1.33;100.00
84318;BME280;74497;51.654;14.238;2024-02-14T01:17:38;100913.88;;;1.32;100.00
84318;BME280;74497;51.654;14.238;2024-02-14T01:20:05;100904.13;;;1.34;100.00
84318;BME280;74497;51.654;14.238;2024-02-14T01:22:34;100903.88;;;1.39;100.00
84318;BME280;74497;51.654;14.238;2024-02-14T01:25:00;100906.44;;;1.40;100.00
84318;BME280;74497;51.654;14.238;2024-02-14T01:27:25;100913.41;;;1.41;100.00
84318;BME280;74497;51.654;14.238;2024-02-14T01:29:51;100913.41;;;1.41;100.00
84318;BME280;74497;51.654;14.238;2024-02-14T01:32:17;100906.59;;;1.37;100.00
84318;BME280;74497;51.654;14.238;2024-02-14T01:34:43;100903.19;;;1.35;100.00
84318;BME280;74497;51.654;14.238;2024-02-14T01:37:09;100904.72;;;1.39;100.00
84318;BME280;74497;51.654;14.238;2024-02-14T01:39:37;100903.63;;;1.43;100.00
84318;BME280;74497;51.654;14.238;2024-02-14T01:42:03;100901.69;;;1.47;100.00
84318;BME280;74497;51.654;14.238;2024-02-14T01:44:33;100896.25;;;1.50;100.00
84318;BME280;74497;51.654;14.238;2024-02-14T01:47:02;100897.09;;;1.50;100.00
84318;BME280;74497;51.654;14.238;2024-02-14T01:49:28;100893.38;;;1.54;100.00
84318;BME280;74497;51.654;14.238;2024-02-14T01:51:55;100903.75;;;1.57;100.00
84318;BME280;74497;51.654;14.238;2024-02-14T01:54:25;100890.56;;;1.57;100.00
84318;BME280;74497;51.654;14.238;2024-02-14T01:56:52;100888.88;;;1.56;100.00
84318;BME280;74497;51.654;14.238;2024-02-14T01:59:18;100890.75;;;1.54;100.00
84318;BME280;74497;51.654;14.238;2024-02-14T02:01:44;100887.28;;;1.54;100.00
84318;BME280;74497;51.654;14.238;2024-02-14T02:04:09;100880.88;;;1.58;100.00
84318;BME280;74497;51.654;14.238;2024-02-14T02:06:36;100884.13;;;1.63;100.00
84318;BME280;74497;51.654;14.238;2024-02-14T02:09:02;100883.69;;;1.71;100.00
84318;BME280;74497;51.654;14.238;2024-02-14T02:11:28;100879.97;;;1.75;100.00
84318;BME280;74497;51.654;14.238;2024-02-14T02:13:54;100876.41;;;1.76;100.00
84318;BME280;74497;51.654;14.238;2024-02-14T02:16:20;100883.22;;;1.80;100.00
84318;BME280;74497;51.654;14.238;2024-02-14T02:18:47;100883.72;;;1.86;100.00
84318;BME280;74497;51.654;14.238;2024-02-14T02:21:14;100873.84;;;1.90;100.00
84318;BME280;74497;51.654;14.238;2024-02-14T02:23:40;100879.06;;;1.92;100.00
84318;BME280;74497;51.654;14.238;2024-02-14T02:26:10;100870.88;;;1.96;100.00
84318;BME280;74497;51.654;14.238;2024-02-14T02:28:36;100872.06;;;2.06;100.00
84318;BME280;74497;51.654;14.238;2024-02-14T02:31:05;100875.91;;;2.16;100.00
84318;BME280;74497;51.654;14.238;2024-02-14T02:33:30;100871.13;;;2.23;100.00
84318;BME280;74497;51.654;14.238;2024-02-14T02:35:56;100863.03;;;2.26;100.00
84318;BME280;74497;51.654;14.238;2024-02-14T02:38:22;100866.16;;;2.33;100.00
84318;BME280;74497;51.654;14.238;2024-02-14T02:40:48;100865.13;;;2.35;100.00
84318;BME280;74497;51.654;14.238;2024-02-14T02:43:14;100861.56;;;2.36;100.00
84318;BME280;74497;51.654;14.238;2024-02-14T02:45:39;100858.84;;;2.38;100.00
84318;BME280;74497;51.654;14.238;2024-02-14T02:48:05;100856.97;;;2.40;100.00
84318;BME280;74497;51.654;14.238;2024-02-14T02:50:31;100852.19;;;2.47;100.00
84318;BME280;74497;51.654;14.238;2024-02-14T02:52:57;100854.91;;;2.45;100.00
84318;BME280;74497;51.654;14.238;2024-02-14T02:55:23;100841.38;;;2.51;100.00
84318;BME280;74497;51.654;14.238;2024-02-14T02:57:48;100844.75;;;2.53;100.00
84318;BME280;74497;51.654;14.238;2024-02-14T03:00:14;100842.13;;;2.53;100.00
84318;BME280;74497;51.654;14.238;2024-02-14T03:02:41;100848.72;;;2.60;100.00
84318;BME280;74497;51.654;14.238;2024-02-14T03:05:10;100846.88;;;2.62;100.00
84318;BME280;74497;51.654;14.238;2024-02-14T03:07:46;100850.34;;;2.63;100.00
84318;BME280;74497;51.654;14.238;2024-02-14T03:10:13;100848.22;;;2.69;100.00
84318;BME280;74497;51.654;14.238;2024-02-14T03:12:40;100844.63;;;2.70;100.00
84318;BME280;74497;51.654;14.238;2024-02-14T03:15:06;100844.47;;;2.74;100.00
84318;BME280;74497;51.654;14.238;2024-02-14T03:17:35;100848.50;;;2.79;100.00
84318;BME280;74497;51.654;14.238;2024-02-14T03:20:01;100842.09;;;2.83;100.00
84318;BME280;74497;51.654;14.238;2024-02-14T03:22:28;100841.94;;;2.86;100.00
84318;BME280;74497;51.654;14.238;2024-02-14T03:24:53;100843.53;;;2.89;100.00
84318;BME280;74497;51.654;14.238;2024-02-14T03:27:19;100838.16;;;2.90;100.00
84318;BME280;74497;51.654;14.238;2024-02-14T03:29:45;100848.81;;;2.89;100.00
84318;BME280;74497;51.654;14.238;2024-02-14T03:32:12;100845.78;;;2.81;100.00
84318;BME280;74497;51.654;14.238;2024-02-14T03:34:38;100839.25;;;2.72;100.00
84318;BME280;74497;51.654;14.238;2024-02-14T03:37:04;100842.19;;;2.67;100.00
84318;BME280;74497;51.654;14.238;2024-02-14T03:39:32;100847.47;;;2.67;100.00
84318;BME280;74497;51.654;14.238;2024-02-14T03:41:58;100845.72;;;2.66;100.00
84318;BME280;74497;51.654;14.238;2024-02-14T03:44:28;100842.84;;;2.71;100.00
84318;BME280;74497;51.654;14.238;2024-02-14T03:46:53;100843.56;;;2.73;100.00
84318;BME280;74497;51.654;14.238;2024-02-14T03:49:19;100834.75;;;2.74;100.00
84318;BME280;74497;51.654;14.238;2024-02-14T03:51:45;100832.66;;;2.79;100.00
84318;BME280;74497;51.654;14.238;2024-02-14T03:54:11;100832.88;;;2.76;100.00
84318;BME280;74497;51.654;14.238;2024-02-14T03:56:37;100827.50;;;2.78;100.00
84318;BME280;74497;51.654;14.238;2024-02-14T03:59:03;100824.59;;;2.82;100.00
84318;BME280;74497;51.654;14.238;2024-02-14T04:01:31;100821.94;;;2.82;100.00
84318;BME280;74497;51.654;14.238;2024-02-14T04:03:57;100821.09;;;2.82;100.00
84318;BME280;74497;51.654;14.238;2024-02-14T04:06:22;100819.31;;;2.82;100.00
84318;BME280;74497;51.654;14.238;2024-02-14T04:08:48;100818.47;;;2.82;100.00
84318;BME280;74497;51.654;14.238;2024-02-14T04:11:14;100817.69;;;2.80;100.00
84318;BME280;74497;51.654;14.238;2024-02-14T04:13:40;100821.47;;;2.76;100.00
84318;BME280;74497;51.654;14.238;2024-02-14T04:16:06;100823.34;;;2.74;100.00
84318;BME280;74497;51.654;14.238;2024-02-14T04:18:32;100819.00;;;2.72;100.00
84318;BME280;74497;51.654;14.238;2024-02-14T04:20:58;100819.00;;;2.72;100.00
84318;BME280;74497;51.654;14.238;2024-02-14T04:23:23;100820.63;;;2.75;100.00
84318;BME280;74497;51.654;14.238;2024-02-14T04:25:50;100820.72;;;2.74;100.00
84318;BME280;74497;51.654;14.238;2024-02-14T04:28:16;100820.97;;;2.69;100.00
84318;BME280;74497;51.654;14.238;2024-02-14T04:30:42;100819.09;;;2.71;100.00
84318;BME280;74497;51.654;14.238;2024-02-14T04:33:08;100817.50;;;2.68;100.00
84318;BME280;74497;51.654;14.238;2024-02-14T04:35:34;100804.78;;;2.61;100.00
84318;BME280;74497;51.654;14.238;2024-02-14T04:38:00;100809.38;;;2.57;100.00
84318;BME280;74497;51.654;14.238;2024-02-14T04:40:26;100804.19;;;2.56;100.00
84318;BME280;74497;51.654;14.238;2024-02-14T04:42:52;100801.63;;;2.54;100.00
84318;BME280;74497;51.654;14.238;2024-02-14T04:45:18;100805.16;;;2.55;100.00
84318;BME280;74497;51.654;14.238;2024-02-14T04:47:44;100809.00;;;2.49;100.00
84318;BME280;74497;51.654;14.238;2024-02-14T04:50:10;100801.44;;;2.43;100.00
84318;BME280;74497;51.654;14.238;2024-02-14T04:52:36;100804.06;;;2.43;100.00
84318;BME280;74497;51.654;14.238;2024-02-14T04:55:02;100797.41;;;2.52;100.00
84318;BME280;74497;51.654;14.238;2024-02-14T04:57:29;100800.88;;;2.52;100.00
84318;BME280;74497;51.654;14.238;2024-02-14T04:59:54;100801.63;;;2.54;100.00
84318;BME280;74497;51.654;14.238;2024-02-14T05:02:20;100803.34;;;2.55;100.00
84318;BME280;74497;51.654;14.238;2024-02-14T05:04:47;100799.00;;;2.54;100.00
84318;BME280;74497;51.654;14.238;2024-02-14T05:07:12;100798.81;;;2.57;100.00
84318;BME280;74497;51.654;14.238;2024-02-14T05:09:38;100796.88;;;2.61;100.00
84318;BME280;74497;51.654;14.238;2024-02-14T05:12:04;100793.19;;;2.63;100.00
84318;BME280;74497;51.654;14.238;2024-02-14T05:14:32;100794.72;;;2.67;100.00
84318;BME280;74497;51.654;14.238;2024-02-14T05:16:58;100790.19;;;2.69;100.00
84318;BME280;74497;51.654;14.238;2024-02-14T05:19:26;100789.91;;;2.74;100.00
84318;BME280;74497;51.654;14.238;2024-02-14T05:21:52;100798.47;;;2.78;100.00
84318;BME280;74497;51.654;14.238;2024-02-14T05:24:17;100800.84;;;2.82;100.00
84318;BME280;74497;51.654;14.238;2024-02-14T05:26:44;100791.88;;;2.85;100.00
84318;BME280;74497;51.654;14.238;2024-02-14T05:29:10;100794.34;;;2.88;100.00
84318;BME280;74497;51.654;14.238;2024-02-14T05:31:45;100788.78;;;2.92;100.00
84318;BME280;74497;51.654;14.238;2024-02-14T05:34:11;100787.66;;;2.96;100.00
84318;BME280;74497;51.654;14.238;2024-02-14T05:36:37;100783.78;;;3.02;100.00
84318;BME280;74497;51.654;14.238;2024-02-14T05:39:04;100787.94;;;3.06;100.00
84318;BME280;74497;51.654;14.238;2024-02-14T05:41:31;100787.47;;;3.14;100.00
84318;BME280;74497;51.654;14.238;2024-02-14T05:43:58;100788.03;;;3.19;100.00
84318;BME280;74497;51.654;14.238;2024-02-14T05:46:24;100781.69;;;3.21;100.00
84318;BME280;74497;51.654;14.238;2024-02-14T05:48:50;100786.81;;;3.24;100.00
84318;BME280;74497;51.654;14.238;2024-02-14T05:51:18;100780.94;;;3.34;100.00
84318;BME280;74497;51.654;14.238;2024-02-14T05:53:43;100782.63;;;3.35;100.00
84318;BME280;74497;51.654;14.238;2024-02-14T05:56:09;100779.88;;;3.36;100.00
84318;BME280;74497;51.654;14.238;2024-02-14T05:58:35;100787.72;;;3.38;100.00
84318;BME280;74497;51.654;14.238;2024-02-14T06:01:01;100790.72;;;3.46;100.00
84318;BME280;74497;51.654;14.238;2024-02-14T06:03:26;100784.69;;;3.44;100.00
84318;BME280;74497;51.654;14.238;2024-02-14T06:05:53;100783.75;;;3.45;100.00
84318;BME280;74497;51.654;14.238;2024-02-14T06:08:18;100775.63;;;3.48;100.00
84318;BME280;74497;51.654;14.238;2024-02-14T06:10:44;100779.78;;;3.52;100.00
84318;BME280;74497;51.654;14.238;2024-02-14T06:13:10;100779.66;;;3.53;100.00
84318;BME280;74497;51.654;14.238;2024-02-14T06:15:36;100777.03;;;3.53;100.00
84318;BME280;74497;51.654;14.238;2024-02-14T06:18:01;100769.00;;;3.55;100.00
84318;BME280;74497;51.654;14.238;2024-02-14T06:20:27;100776.19;;;3.53;100.00
84318;BME280;74497;51.654;14.238;2024-02-14T06:22:53;100769.22;;;3.52;100.00
84318;BME280;74497;51.654;14.238;2024-02-14T06:25:20;100778.09;;;3.51;100.00
84318;BME280;74497;51.654;14.238;2024-02-14T06:27:46;100777.88;;;3.54;100.00
84318;BME280;74497;51.654;14.238;2024-02-14T06:30:12;100780.34;;;3.57;100.00
84318;BME280;74497;51.654;14.238;2024-02-14T06:32:37;100778.16;;;3.49;100.00
84318;BME280;74497;51.654;14.238;2024-02-14T06:35:03;100777.25;;;3.50;100.00
84318;BME280;74497;51.654;14.238;2024-02-14T06:37:29;100791.34;;;3.49;100.00
84318;BME280;74497;51.654;14.238;2024-02-14T06:39:55;100785.63;;;3.57;100.00
84318;BME280;74497;51.654;14.238;2024-02-14T06:42:20;100782.97;;;3.57;100.00
84318;BME280;74497;51.654;14.238;2024-02-14T06:44:46;100791.91;;;3.55;100.00
84318;BME280;74497;51.654;14.238;2024-02-14T06:47:13;100786.53;;;3.56;100.00
84318;BME280;74497;51.654;14.238;2024-02-14T06:49:38;100784.66;;;3.58;100.00
84318;BME280;74497;51.654;14.238;2024-02-14T06:52:04;100790.22;;;3.53;100.00
84318;BME280;74497;51.654;14.238;2024-02-14T06:54:30;100791.81;;;3.56;100.00
84318;BME280;74497;51.654;14.238;2024-02-14T06:56:56;100788.25;;;3.57;100.00
84318;BME280;74497;51.654;14.238;2024-02-14T06:59:21;100785.50;;;3.59;100.00
84318;BME280;74497;51.654;14.238;2024-02-14T07:01:47;100778.78;;;3.67;100.00
84318;BME280;74497;51.654;14.238;2024-02-14T07:04:13;100776.91;;;3.69;100.00
84318;BME280;74497;51.654;14.238;2024-02-14T07:06:38;100779.22;;;3.74;100.00
84318;BME280;74497;51.654;14.238;2024-02-14T07:09:04;100776.50;;;3.75;100.00
84318;BME280;74497;51.654;14.238;2024-02-14T07:11:30;100777.97;;;3.79;100.00
84318;BME280;74497;51.654;14.238;2024-02-14T07:13:55;100779.28;;;3.87;100.00
84318;BME280;74497;51.654;14.238;2024-02-14T07:16:22;100767.28;;;3.95;100.00
84318;BME280;74497;51.654;14.238;2024-02-14T07:18:49;100776.59;;;4.01;100.00
84318;BME280;74497;51.654;14.238;2024-02-14T07:21:15;100778.63;;;4.10;100.00
84318;BME280;74497;51.654;14.238;2024-02-14T07:23:40;100769.22;;;4.19;100.00
84318;BME280;74497;51.654;14.238;2024-02-14T07:26:06;100769.88;;;4.22;100.00
84318;BME280;74497;51.654;14.238;2024-02-14T07:28:31;100763.13;;;4.31;100.00
84318;BME280;74497;51.654;14.238;2024-02-14T07:30:57;100763.00;;;4.32;100.00
84318;BME280;74497;51.654;14.238;2024-02-14T07:33:23;100759.53;;;4.45;100.00
84318;BME280;74497;51.654;14.238;2024-02-14T07:35:49;100762.53;;;4.53;100.00
84318;BME280;74497;51.654;14.238;2024-02-14T07:38:15;100758.41;;;4.61;100.00
84318;BME280;74497;51.654;14.238;2024-02-14T07:40:42;100750.88;;;4.68;100.00
84318;BME280;74497;51.654;14.238;2024-02-14T07:43:07;100743.91;;;4.80;100.00
84318;BME280;74497;51.654;14.238;2024-02-14T07:45:33;100746.44;;;4.81;100.00
84318;BME280;74497;51.654;14.238;2024-02-14T07:48:05;100741.03;;;4.83;100.00
84318;BME280;74497;51.654;14.238;2024-02-14T07:50:34;100742.19;;;4.92;100.00
84318;BME280;74497;51.654;14.238;2024-02-14T07:52:59;100738.06;;;4.87;100.00
84318;BME280;74497;51.654;14.238;2024-02-14T07:55:25;100736.66;;;4.95;100.00
84318;BME280;74497;51.654;14.238;2024-02-14T07:57:50;100734.97;;;4.94;100.00
84318;BME280;74497;51.654;14.238;2024-02-14T08:00:18;100735.41;;;5.00;100.00
84318;BME280;74497;51.654;14.238;2024-02-14T08:02:48;100738.25;;;5.10;100.00
84318;BME280;74497;51.654;14.238;2024-02-14T08:05:14;100733.81;;;5.10;100.00
84318;BME280;74497;51.654;14.238;2024-02-14T08:07:40;100736.09;;;5.15;100.00
84318;BME280;74497;51.654;14.238;2024-02-14T08:10:05;100729.75;;;5.18;100.00
84318;BME280;74497;51.654;14.238;2024-02-14T08:12:31;100728.59;;;5.22;100.00
84318;BME280;74497;51.654;14.238;2024-02-14T08:14:57;100729.16;;;5.38;100.00
84318;BME280;74497;51.654;14.238;2024-02-14T08:17:22;100726.59;;;5.49;100.00
84318;BME280;74497;51.654;14.238;2024-02-14T08:19:48;100729.53;;;5.57;100.00
84318;BME280;74497;51.654;14.238;2024-02-14T08:22:14;100719.56;;;5.61;100.00
84318;BME280;74497;51.654;14.238;2024-02-14T08:24:39;100717.88;;;5.60;100.00
84318;BME280;74497;51.654;14.238;2024-02-14T08:27:06;100704.78;;;5.69;100.00
84318;BME280;74497;51.654;14.238;2024-02-14T08:29:32;100709.03;;;5.83;100.00
84318;BME280;74497;51.654;14.238;2024-02-14T08:31:57;100703.69;;;5.96;100.00
84318;BME280;74497;51.654;14.238;2024-02-14T08:34:23;100704.59;;;6.08;100.00
84318;BME280;74497;51.654;14.238;2024-02-14T08:36:49;100696.69;;;6.19;100.00
84318;BME280;74497;51.654;14.238;2024-02-14T08:39:15;100709.22;;;6.28;100.00
84318;BME280;74497;51.654;14.238;2024-02-14T08:41:40;100709.81;;;6.20;100.00
84318;BME280;74497;51.654;14.238;2024-02-14T08:44:08;100700.38;;;6.16;100.00
84318;BME280;74497;51.654;14.238;2024-02-14T08:46:34;100716.09;;;6.19;100.00
84318;BME280;74497;51.654;14.238;2024-02-14T08:49:00;100715.00;;;6.22;100.00
84318;BME280;74497;51.654;14.238;2024-02-14T08:51:28;100713.47;;;6.31;100.00
84318;BME280;74497;51.654;14.238;2024-02-14T08:53:54;100717.47;;;6.36;100.00
84318;BME280;74497;51.654;14.238;2024-02-14T08:56:22;100719.88;;;6.39;100.00
84318;BME280;74497;51.654;14.238;2024-02-14T08:58:49;100715.19;;;6.54;100.00
84318;BME280;74497;51.654;14.238;2024-02-14T09:01:14;100711.31;;;6.58;100.00
84318;BME280;74497;51.654;14.238;2024-02-14T09:03:44;100716.03;;;6.66;100.00
84318;BME280;74497;51.654;14.238;2024-02-14T09:06:16;100717.00;;;6.65;100.00
84318;BME280;74497;51.654;14.238;2024-02-14T09:08:43;100707.84;;;6.69;100.00
84318;BME280;74497;51.654;14.238;2024-02-14T09:11:09;100707.13;;;6.78;100.00
84318;BME280;74497;51.654;14.238;2024-02-14T09:13:35;100702.66;;;6.90;100.00
84318;BME280;74497;51.654;14.238;2024-02-14T09:16:00;100705.91;;;6.93;100.00
84318;BME280;74497;51.654;14.238;2024-02-14T09:18:26;100714.72;;;7.05;100.00
84318;BME280;74497;51.654;14.238;2024-02-14T09:20:52;100705.63;;;7.19;100.00
84318;BME280;74497;51.654;14.238;2024-02-14T09:23:18;100707.78;;;7.25;100.00
84318;BME280;74497;51.654;14.238;2024-02-14T09:25:46;100704.16;;;7.37;100.00
84318;BME280;74497;51.654;14.238;2024-02-14T09:28:15;100708.75;;;7.46;100.00
84318;BME280;74497;51.654;14.238;2024-02-14T09:30:40;100717.63;;;7.56;100.00
84318;BME280;74497;51.654;14.238;2024-02-14T09:33:06;100711.03;;;7.51;100.00
84318;BME280;74497;51.654;14.238;2024-02-14T09:35:32;100708.09;;;7.54;100.00
84318;BME280;74497;51.654;14.238;2024-02-14T09:37:58;100705.94;;;7.59;100.00
84318;BME280;74497;51.654;14.238;2024-02-14T09:40:25;100707.69;;;7.70;100.00
84318;BME280;74497;51.654;14.238;2024-02-14T09:42:54;100700.44;;;7.72;100.00
84318;BME280;74497;51.654;14.238;2024-02-14T09:45:27;100704.53;;;7.76;100.00
84318;BME280;74497;51.654;14.238;2024-02-14T09:47:53;100701.16;;;7.74;100.00
84318;BME280;74497;51.654;14.238;2024-02-14T09:50:20;100698.19;;;7.88;100.00
84318;BME280;74497;51.654;14.238;2024-02-14T09:52:48;100693.88;;;7.76;100.00
84318;BME280;74497;51.654;14.238;2024-02-14T09:55:15;100690.72;;;7.82;100.00
84318;BME280;74497;51.654;14.238;2024-02-14T09:57:42;100698.69;;;7.82;100.00
84318;BME280;74497;51.654;14.238;2024-02-14T10:00:11;100693.34;;;7.93;100.00
84318;BME280;74497;51.654;14.238;2024-02-14T10:02:40;100709.06;;;7.96;100.00
84318;BME280;74497;51.654;14.238;2024-02-14T10:05:07;100702.63;;;7.99;100.00
84318;BME280;74497;51.654;14.238;2024-02-14T10:07:43;100706.97;;;8.00;100.00
84318;BME280;74497;51.654;14.238;2024-02-14T10:10:09;100705.88;;;8.02;100.00
84318;BME280;74497;51.654;14.238;2024-02-14T10:12:36;100712.88;;;8.03;100.00
84318;BME280;74497;51.654;14.238;2024-02-14T10:15:01;100700.94;;;7.98;100.00
84318;BME280;74497;51.654;14.238;2024-02-14T10:17:28;100698.50;;;7.95;100.00
84318;BME280;74497;51.654;14.238;2024-02-14T10:19:58;100693.47;;;7.92;100.00
84318;BME280;74497;51.654;14.238;2024-02-14T10:22:24;100695.28;;;7.91;100.00
84318;BME280;74497;51.654;14.238;2024-02-14T10:24:51;100695.16;;;7.93;100.00
84318;BME280;74497;51.654;14.238;2024-02-14T10:27:17;100699.19;;;7.76;100.00
84318;BME280;74497;51.654;14.238;2024-02-14T10:29:43;100695.59;;;7.77;100.00
84318;BME280;74497;51.654;14.238;2024-02-14T10:32:10;100699.63;;;7.92;100.00
84318;BME280;74497;51.654;14.238;2024-02-14T10:34:36;100699.91;;;7.89;100.00
84318;BME280;74497;51.654;14.238;2024-02-14T10:37:03;100704.44;;;7.98;100.00
84318;BME280;74497;51.654;14.238;2024-02-14T10:39:32;100700.59;;;7.91;100.00
84318;BME280;74497;51.654;14.238;2024-02-14T10:41:58;100694.97;;;8.05;100.00
84318;BME280;74497;51.654;14.238;2024-02-14T10:44:25;100693.47;;;7.92;100.00
84318;BME280;74497;51.654;14.238;2024-02-14T10:46:52;100692.03;;;7.88;100.00
84318;BME280;74497;51.654;14.238;2024-02-14T10:49:21;100690.47;;;7.85;100.00
84318;BME280;74497;51.654;14.238;2024-02-14T10:51:51;100683.16;;;7.98;100.00
84318;BME280;74497;51.654;14.238;2024-02-14T10:54:19;100683.66;;;7.92;100.00
84318;BME280;74497;51.654;14.238;2024-02-14T10:56:48;100682.44;;;7.96;100.00
84318;BME280;74497;51.654;14.238;2024-02-14T10:59:17;100680.50;;;7.98;100.00
84318;BME280;74497;51.654;14.238;2024-02-14T11:01:45;100679.28;;;8.02;100.00
84318;BME280;74497;51.654;14.238;2024-02-14T11:04:12;100675.88;;;8.00;100.00
84318;BME280;74497;51.654;14.238;2024-02-14T11:06:48;100673.44;;;8.08;100.00
84318;BME280;74497;51.654;14.238;2024-02-14T11:09:14;100676.16;;;8.18;100.00
84318;BME280;74497;51.654;14.238;2024-02-14T11:11:47;100670.38;;;8.13;100.00
84318;BME280;74497;51.654;14.238;2024-02-14T11:14:18;100671.94;;;8.16;100.00
84318;BME280;74497;51.654;14.238;2024-02-14T11:16:47;100676.00;;;8.20;100.00
84318;BME280;74497;51.654;14.238;2024-02-14T11:19:13;100671.84;;;8.27;100.00
84318;BME280;74497;51.654;14.238;2024-02-14T11:21:47;100685.13;;;8.38;100.00
84318;BME280;74497;51.654;14.238;2024-02-14T11:24:14;100680.06;;;8.35;100.00
84318;BME280;74497;51.654;14.238;2024-02-14T11:29:16;100677.31;;;8.25;100.00
84318;BME280;74497;51.654;14.238;2024-02-14T11:31:45;100676.34;;;8.26;100.00
84318;BME280;74497;51.654;14.238;2024-02-14T11:34:12;100679.59;;;8.30;100.00
84318;BME280;74497;51.654;14.238;2024-02-14T11:36:39;100677.38;;;8.35;100.00
84318;BME280;74497;51.654;14.238;2024-02-14T11:39:06;100669.94;;;8.29;100.00
84318;BME280;74497;51.654;14.238;2024-02-14T11:41:33;100681.41;;;8.29;100.00
84318;BME280;74497;51.654;14.238;2024-02-14T11:44:06;100678.00;;;8.38;100.00
84318;BME280;74497;51.654;14.238;2024-02-14T11:46:32;100673.44;;;8.50;100.00
84318;BME280;74497;51.654;14.238;2024-02-14T11:49:03;100667.06;;;8.62;100.00
84318;BME280;74497;51.654;14.238;2024-02-14T11:51:30;100679.13;;;8.66;100.00
84318;BME280;74497;51.654;14.238;2024-02-14T11:53:57;100671.16;;;8.76;100.00
84318;BME280;74497;51.654;14.238;2024-02-14T11:56:30;100677.88;;;8.71;100.00
84318;BME280;74497;51.654;14.238;2024-02-14T11:59:03;100675.22;;;8.71;100.00
84318;BME280;74497;51.654;14.238;2024-02-14T12:01:30;100676.47;;;8.66;100.00
84318;BME280;74497;51.654;14.238;2024-02-14T12:03:58;100672.44;;;8.72;100.00
84318;BME280;74497;51.654;14.238;2024-02-14T12:06:24;100668.06;;;8.71;100.00
84318;BME280;74497;51.654;14.238;2024-02-14T12:08:50;100671.84;;;8.69;100.00
84318;BME280;74497;51.654;14.238;2024-02-14T12:11:17;100670.91;;;8.79;100.00
84318;BME280;74497;51.654;14.238;2024-02-14T12:13:43;100666.22;;;8.62;100.00
84318;BME280;74497;51.654;14.238;2024-02-14T12:16:10;100664.84;;;8.68;100.00
84318;BME280;74497;51.654;14.238;2024-02-14T12:18:36;100662.44;;;8.64;100.00
84318;BME280;74497;51.654;14.238;2024-02-14T12:21:05;100656.78;;;8.58;100.00
84318;BME280;74497;51.654;14.238;2024-02-14T12:23:33;100652.63;;;8.65;100.00
84318;BME280;74497;51.654;14.238;2024-02-14T12:26:03;100657.41;;;8.71;100.00
84318;BME280;74497;51.654;14.238;2024-02-14T12:28:29;100654.78;;;8.81;100.00
84318;BME280;74497;51.654;14.238;2024-02-14T12:30:59;100652.59;;;8.86;100.00
84318;BME280;74497;51.654;14.238;2024-02-14T12:33:26;100651.06;;;9.03;100.00
84318;BME280;74497;51.654;14.238;2024-02-14T12:35:55;100651.50;;;8.98;100.00
84318;BME280;74497;51.654;14.238;2024-02-14T12:38:23;100643.91;;;9.03;100.00
84318;BME280;74497;51.654;14.238;2024-02-14T12:40:48;100647.44;;;9.04;100.00